sensor_id;sensor_type;location;lat;lon;timestamp;P1;durP1;ratioP1;P2;durP2;ratioP2
62353;SDS011;48391;49.184;2.418;2022-12-18T08:53:40;60.83;;;29.63;;
62353;SDS011;48391;49.184;2.418;2022-12-18T09:00:34;48.73;;;26.73;;
62353;SDS011;48391;49.184;2.418;2022-12-18T09:03:00;46.60;;;24.50;;
62353;SDS011;48391;49.184;2.418;2022-12-18T09:05:27;38.45;;;20.48;;
62353;SDS011;48391;49.184;2.418;2022-12-18T09:07:53;39.08;;;20.05;;
62353;SDS011;48391;49.184;2.418;2022-12-18T09:10:19;36.88;;;17.33;;
62353;SDS011;48391;49.184;2.418;2022-12-18T09:12:45;29.85;;;16.77;;
62353;SDS011;48391;49.184;2.418;2022-12-18T09:15:11;40.97;;;20.45;;
62353;SDS011;48391;49.184;2.418;2022-12-18T09:17:37;38.53;;;20.63;;
62353;SDS011;48391;49.184;2.418;2022-12-18T09:20:04;35.53;;;18.38;;
62353;SDS011;48391;49.184;2.418;2022-12-18T09:22:31;34.15;;;18.08;;
62353;SDS011;48391;49.184;2.418;2022-12-18T09:24:57;40.95;;;22.08;;
62353;SDS011;48391;49.184;2.418;2022-12-18T09:27:23;35.72;;;20.00;;
62353;SDS011;48391;49.184;2.418;2022-12-18T09:29:49;31.15;;;17.88;;
62353;SDS011;48391;49.184;2.418;2022-12-18T09:32:15;37.13;;;19.77;;
62353;SDS011;48391;49.184;2.418;2022-12-18T09:34:41;34.22;;;19.05;;
62353;SDS011;48391;49.184;2.418;2022-12-18T09:37:07;34.78;;;18.95;;
62353;SDS011;48391;49.184;2.418;2022-12-18T09:39:34;29.38;;;16.67;;
62353;SDS011;48391;49.184;2.418;2022-12-18T09:42:00;36.33;;;19.33;;
62353;SDS011;48391;49.184;2.418;2022-12-18T09:44:39;36.25;;;19.98;;
62353;SDS011;48391;49.184;2.418;2022-12-18T09:49:52;35.00;;;19.73;;
62353;SDS011;48391;49.184;2.418;2022-12-18T09:55:11;31.83;;;17.38;;
62353;SDS011;48391;49.184;2.418;2022-12-18T09:57:40;37.63;;;20.45;;
62353;SDS011;48391;49.184;2.418;2022-12-18T10:00:19;44.63;;;22.15;;
62353;SDS011;48391;49.184;2.418;2022-12-18T10:02:47;35.22;;;20.40;;
62353;SDS011;48391;49.184;2.418;2022-12-18T10:05:16;33.85;;;17.80;;
62353;SDS011;48391;49.184;2.418;2022-12-18T10:13:41;32.30;;;17.63;;
62353;SDS011;48391;49.184;2.418;2022-12-18T10:16:15;36.47;;;18.10;;
62353;SDS011;48391;49.184;2.418;2022-12-18T10:18:49;27.30;;;16.15;;
62353;SDS011;48391;49.184;2.418;2022-12-18T10:21:34;25.13;;;12.88;;
62353;SDS011;48391;49.184;2.418;2022-12-18T10:26:38;29.48;;;16.45;;
62353;SDS011;48391;49.184;2.418;2022-12-18T10:29:16;30.67;;;17.45;;
62353;SDS011;48391;49.184;2.418;2022-12-18T10:31:42;26.05;;;15.52;;
62353;SDS011;48391;49.184;2.418;2022-12-18T10:34:11;26.95;;;15.00;;
62353;SDS011;48391;49.184;2.418;2022-12-18T10:36:39;25.08;;;13.82;;
62353;SDS011;48391;49.184;2.418;2022-12-18T10:39:22;35.60;;;16.67;;
62353;SDS011;48391;49.184;2.418;2022-12-18T10:41:51;30.83;;;18.75;;
62353;SDS011;48391;49.184;2.418;2022-12-18T10:44:23;31.58;;;18.85;;
62353;SDS011;48391;49.184;2.418;2022-12-18T10:46:53;31.08;;;17.50;;
62353;SDS011;48391;49.184;2.418;2022-12-18T10:49:26;32.80;;;17.02;;
62353;SDS011;48391;49.184;2.418;2022-12-18T10:54:38;25.75;;;13.98;;
62353;SDS011;48391;49.184;2.418;2022-12-18T10:57:14;28.85;;;16.05;;
62353;SDS011;48391;49.184;2.418;2022-12-18T10:59:53;26.33;;;14.38;;
62353;SDS011;48391;49.184;2.418;2022-12-18T11:02:54;19.58;;;12.30;;
62353;SDS011;48391;49.184;2.418;2022-12-18T11:05:32;26.17;;;14.82;;
62353;SDS011;48391;49.184;2.418;2022-12-18T11:07:59;27.55;;;17.08;;
62353;SDS011;48391;49.184;2.418;2022-12-18T11:10:30;26.23;;;14.65;;
62353;SDS011;48391;49.184;2.418;2022-12-18T11:15:45;25.17;;;13.55;;
62353;SDS011;48391;49.184;2.418;2022-12-18T11:18:19;28.73;;;17.00;;
62353;SDS011;48391;49.184;2.418;2022-12-18T11:20:53;29.20;;;14.98;;
62353;SDS011;48391;49.184;2.418;2022-12-18T11:23:22;27.52;;;15.55;;
62353;SDS011;48391;49.184;2.418;2022-12-18T11:25:53;32.05;;;17.20;;
62353;SDS011;48391;49.184;2.418;2022-12-18T11:28:40;32.42;;;17.83;;
62353;SDS011;48391;49.184;2.418;2022-12-18T11:33:47;28.50;;;17.35;;
62353;SDS011;48391;49.184;2.418;2022-12-18T11:36:14;32.45;;;17.67;;
62353;SDS011;48391;49.184;2.418;2022-12-18T11:38:42;27.92;;;16.50;;
62353;SDS011;48391;49.184;2.418;2022-12-18T11:41:25;27.23;;;15.55;;
62353;SDS011;48391;49.184;2.418;2022-12-18T11:44:40;24.48;;;13.80;;
62353;SDS011;48391;49.184;2.418;2022-12-18T11:50:05;24.88;;;13.65;;
62353;SDS011;48391;49.184;2.418;2022-12-18T11:52:39;23.30;;;13.40;;
62353;SDS011;48391;49.184;2.418;2022-12-18T11:55:13;23.85;;;13.10;;
62353;SDS011;48391;49.184;2.418;2022-12-18T11:57:54;24.33;;;12.55;;
62353;SDS011;48391;49.184;2.418;2022-12-18T12:00:36;18.23;;;11.30;;
62353;SDS011;48391;49.184;2.418;2022-12-18T12:03:15;15.90;;;10.55;;
62353;SDS011;48391;49.184;2.418;2022-12-18T12:06:03;18.85;;;11.30;;
62353;SDS011;48391;49.184;2.418;2022-12-18T12:16:45;32.45;;;17.60;;
62353;SDS011;48391;49.184;2.418;2022-12-18T12:19:30;27.63;;;15.75;;
62353;SDS011;48391;49.184;2.418;2022-12-18T12:27:37;23.42;;;13.80;;
62353;SDS011;48391;49.184;2.418;2022-12-18T12:33:15;24.10;;;14.32;;
62353;SDS011;48391;49.184;2.418;2022-12-18T12:39:01;23.33;;;13.73;;
62353;SDS011;48391;49.184;2.418;2022-12-18T12:41:33;22.77;;;13.55;;
62353;SDS011;48391;49.184;2.418;2022-12-18T12:44:30;19.75;;;12.13;;
62353;SDS011;48391;49.184;2.418;2022-12-18T12:47:28;27.80;;;15.15;;
62353;SDS011;48391;49.184;2.418;2022-12-18T12:50:01;22.23;;;12.18;;
62353;SDS011;48391;49.184;2.418;2022-12-18T12:52:32;23.67;;;12.88;;
62353;SDS011;48391;49.184;2.418;2022-12-18T12:55:04;22.33;;;12.80;;
62353;SDS011;48391;49.184;2.418;2022-12-18T12:57:46;20.25;;;12.80;;
62353;SDS011;48391;49.184;2.418;2022-12-18T13:00:18;31.92;;;16.08;;
62353;SDS011;48391;49.184;2.418;2022-12-18T13:06:03;25.48;;;14.13;;
62353;SDS011;48391;49.184;2.418;2022-12-18T13:08:55;24.13;;;13.73;;
62353;SDS011;48391;49.184;2.418;2022-12-18T13:14:20;21.85;;;13.07;;
62353;SDS011;48391;49.184;2.418;2022-12-18T13:16:52;26.42;;;15.30;;
62353;SDS011;48391;49.184;2.418;2022-12-18T13:19:50;20.15;;;11.80;;
62353;SDS011;48391;49.184;2.418;2022-12-18T13:22:48;22.70;;;12.38;;
62353;SDS011;48391;49.184;2.418;2022-12-18T13:25:32;26.08;;;14.23;;
62353;SDS011;48391;49.184;2.418;2022-12-18T13:28:01;25.65;;;13.73;;
62353;SDS011;48391;49.184;2.418;2022-12-18T13:38:21;22.13;;;12.32;;
62353;SDS011;48391;49.184;2.418;2022-12-18T13:48:28;22.30;;;13.05;;
62353;SDS011;48391;49.184;2.418;2022-12-18T13:53:26;19.85;;;11.55;;
62353;SDS011;48391;49.184;2.418;2022-12-18T13:55:55;18.83;;;10.25;;
62353;SDS011;48391;49.184;2.418;2022-12-18T13:58:22;18.90;;;11.18;;
62353;SDS011;48391;49.184;2.418;2022-12-18T14:00:48;17.63;;;11.18;;
62353;SDS011;48391;49.184;2.418;2022-12-18T14:03:22;17.27;;;10.35;;
62353;SDS011;48391;49.184;2.418;2022-12-18T14:05:57;20.27;;;11.63;;
62353;SDS011;48391;49.184;2.418;2022-12-18T14:08:27;20.33;;;12.27;;
62353;SDS011;48391;49.184;2.418;2022-12-18T14:10:59;20.83;;;11.93;;
62353;SDS011;48391;49.184;2.418;2022-12-18T14:13:30;17.17;;;10.57;;
62353;SDS011;48391;49.184;2.418;2022-12-18T14:16:00;21.10;;;11.80;;
62353;SDS011;48391;49.184;2.418;2022-12-18T14:18:32;15.55;;;9.77;;
62353;SDS011;48391;49.184;2.418;2022-12-18T14:21:06;21.02;;;11.63;;
62353;SDS011;48391;49.184;2.418;2022-12-18T14:24:34;17.98;;;10.82;;
62353;SDS011;48391;49.184;2.418;2022-12-18T14:26:43;18.42;;;10.75;;
62353;SDS011;48391;49.184;2.418;2022-12-18T14:29:26;17.00;;;10.25;;
62353;SDS011;48391;49.184;2.418;2022-12-18T14:32:11;14.52;;;8.40;;
62353;SDS011;48391;49.184;2.418;2022-12-18T14:34:41;13.75;;;7.38;;
62353;SDS011;48391;49.184;2.418;2022-12-18T14:37:13;12.90;;;7.05;;
62353;SDS011;48391;49.184;2.418;2022-12-18T14:39:40;13.60;;;8.88;;
62353;SDS011;48391;49.184;2.418;2022-12-18T14:42:30;14.57;;;7.82;;
62353;SDS011;48391;49.184;2.418;2022-12-18T14:48:05;14.85;;;8.85;;
62353;SDS011;48391;49.184;2.418;2022-12-18T14:50:33;18.20;;;10.68;;
62353;SDS011;48391;49.184;2.418;2022-12-18T14:53:00;18.58;;;9.57;;
62353;SDS011;48391;49.184;2.418;2022-12-18T14:55:26;15.38;;;8.38;;
62353;SDS011;48391;49.184;2.418;2022-12-18T14:57:53;12.43;;;7.72;;
62353;SDS011;48391;49.184;2.418;2022-12-18T15:00:23;12.80;;;7.80;;
62353;SDS011;48391;49.184;2.418;2022-12-18T15:02:54;10.82;;;6.68;;
62353;SDS011;48391;49.184;2.418;2022-12-18T15:07:53;9.18;;;6.38;;
62353;SDS011;48391;49.184;2.418;2022-12-18T15:10:25;10.55;;;6.20;;
62353;SDS011;48391;49.184;2.418;2022-12-18T15:20:59;13.15;;;8.40;;
62353;SDS011;48391;49.184;2.418;2022-12-18T15:26:09;19.13;;;10.95;;
62353;SDS011;48391;49.184;2.418;2022-12-18T15:33:39;17.77;;;10.30;;
62353;SDS011;48391;49.184;2.418;2022-12-18T15:36:11;15.10;;;9.75;;
62353;SDS011;48391;49.184;2.418;2022-12-18T15:38:39;12.77;;;8.05;;
62353;SDS011;48391;49.184;2.418;2022-12-18T15:41:06;14.60;;;8.57;;
62353;SDS011;48391;49.184;2.418;2022-12-18T15:43:39;12.48;;;7.30;;
62353;SDS011;48391;49.184;2.418;2022-12-18T15:46:16;12.35;;;7.13;;
62353;SDS011;48391;49.184;2.418;2022-12-18T15:48:45;13.63;;;8.80;;
62353;SDS011;48391;49.184;2.418;2022-12-18T15:51:32;13.57;;;7.95;;
62353;SDS011;48391;49.184;2.418;2022-12-18T15:54:01;13.60;;;8.30;;
62353;SDS011;48391;49.184;2.418;2022-12-18T15:56:29;19.15;;;10.48;;
62353;SDS011;48391;49.184;2.418;2022-12-18T15:59:18;15.52;;;9.25;;
62353;SDS011;48391;49.184;2.418;2022-12-18T16:01:49;13.82;;;7.65;;
62353;SDS011;48391;49.184;2.418;2022-12-18T16:04:18;13.00;;;8.75;;
62353;SDS011;48391;49.184;2.418;2022-12-18T16:06:45;16.00;;;9.25;;
62353;SDS011;48391;49.184;2.418;2022-12-18T16:09:12;16.13;;;8.43;;
62353;SDS011;48391;49.184;2.418;2022-12-18T16:11:39;20.92;;;11.35;;
62353;SDS011;48391;49.184;2.418;2022-12-18T16:16:48;14.43;;;8.77;;
62353;SDS011;48391;49.184;2.418;2022-12-18T16:19:16;13.65;;;8.23;;
62353;SDS011;48391;49.184;2.418;2022-12-18T16:21:43;15.68;;;7.97;;
62353;SDS011;48391;49.184;2.418;2022-12-18T16:24:21;11.02;;;6.68;;
62353;SDS011;48391;49.184;2.418;2022-12-18T16:26:49;12.40;;;7.07;;
62353;SDS011;48391;49.184;2.418;2022-12-18T16:29:19;13.68;;;8.75;;
62353;SDS011;48391;49.184;2.418;2022-12-18T16:31:49;11.80;;;7.38;;
62353;SDS011;48391;49.184;2.418;2022-12-18T16:34:20;13.27;;;8.10;;
62353;SDS011;48391;49.184;2.418;2022-12-18T16:36:58;12.10;;;7.88;;
62353;SDS011;48391;49.184;2.418;2022-12-18T16:39:28;12.55;;;7.70;;
62353;SDS011;48391;49.184;2.418;2022-12-18T16:41:55;17.40;;;10.73;;
62353;SDS011;48391;49.184;2.418;2022-12-18T16:44:22;13.93;;;8.57;;
62353;SDS011;48391;49.184;2.418;2022-12-18T16:46:48;14.07;;;7.97;;
62353;SDS011;48391;49.184;2.418;2022-12-18T16:49:15;13.18;;;7.22;;
62353;SDS011;48391;49.184;2.418;2022-12-18T16:51:42;11.15;;;6.70;;
62353;SDS011;48391;49.184;2.418;2022-12-18T16:54:10;12.38;;;7.88;;
62353;SDS011;48391;49.184;2.418;2022-12-18T16:56:36;13.43;;;8.48;;
62353;SDS011;48391;49.184;2.418;2022-12-18T16:59:02;11.90;;;6.90;;
62353;SDS011;48391;49.184;2.418;2022-12-18T17:01:29;10.60;;;7.15;;
62353;SDS011;48391;49.184;2.418;2022-12-18T17:04:01;12.30;;;8.27;;
62353;SDS011;48391;49.184;2.418;2022-12-18T17:06:30;15.10;;;9.70;;
62353;SDS011;48391;49.184;2.418;2022-12-18T17:08:58;13.25;;;8.05;;
62353;SDS011;48391;49.184;2.418;2022-12-18T17:11:26;13.73;;;8.27;;
62353;SDS011;48391;49.184;2.418;2022-12-18T17:13:54;14.25;;;8.50;;
62353;SDS011;48391;49.184;2.418;2022-12-18T17:16:22;11.43;;;7.53;;
62353;SDS011;48391;49.184;2.418;2022-12-18T17:18:48;10.50;;;6.93;;
62353;SDS011;48391;49.184;2.418;2022-12-18T17:21:16;9.52;;;5.78;;
62353;SDS011;48391;49.184;2.418;2022-12-18T17:23:43;11.88;;;7.32;;
